Time;durP1;ratioP1;P1;durP2;ratioP2;P2;SDS_P1;SDS_P2;PMS_P1;PMS_P2;Temp;Humidity;BMP_temperature;BMP_pressure;BME280_temperature;BME280_humidity;BME280_pressure;Samples;Min_cycle;Max_cycle;Signal;HPM_P1;HPM_P2
2022/11/03 00:01:37;;;;;;;5.55;2.83;;;12.10;99.90;;;;;;7393283;19;20118;-74
2022/11/03 00:04:04;;;;;;;6.43;3.03;;;12.00;99.90;;;;;;7394686;19;20146;-74
2022/11/03 00:06:30;;;;;;;6.30;2.77;;;12.20;99.90;;;;;;7395345;19;20165;-74
2022/11/03 00:09:00;;;;;;;6.50;2.87;;;12.30;99.90;;;;;;7396020;19;20576;-76
2022/11/03 00:11:26;;;;;;;6.97;3.37;;;12.40;99.90;;;;;;7392045;19;20130;-74
2022/11/03 00:13:52;;;;;;;6.83;2.90;;;12.40;99.90;;;;;;7393489;19;20521;-74
2022/11/03 00:16:18;;;;;;;5.80;2.97;;;12.40;99.90;;;;;;7393254;19;20138;-74
2022/11/03 00:18:44;;;;;;;5.57;2.97;;;12.10;99.90;;;;;;7395590;19;20259;-74
2022/11/03 00:21:12;;;;;;;7.60;2.87;;;12.00;99.90;;;;;;7391485;19;20252;-73
2022/11/03 00:23:40;;;;;;;5.47;2.60;;;12.10;99.90;;;;;;7393381;19;20138;-73
2022/11/03 00:26:13;;;;;;;8.17;2.90;;;12.20;99.90;;;;;;7393246;19;20166;-73
2022/11/03 00:28:44;;;;;;;4.17;2.60;;;12.10;99.90;;;;;;7395064;19;20143;-74
2022/11/03 00:31:17;;;;;;;7.60;3.30;;;12.20;99.90;;;;;;7394445;19;20134;-74
2022/11/03 00:33:43;;;;;;;8.10;3.97;;;12.30;99.90;;;;;;7396071;19;20137;-74
2022/11/03 00:36:12;;;;;;;6.93;3.40;;;12.10;99.90;;;;;;7395785;19;20225;-74
2022/11/03 00:38:37;;;;;;;8.23;3.30;;;11.70;99.90;;;;;;7395474;19;20138;-73
2022/11/03 00:41:05;;;;;;;8.60;3.30;;;11.80;99.90;;;;;;7394472;19;20618;-75
2022/11/03 00:43:33;;;;;;;8.43;3.17;;;12.00;99.90;;;;;;7397060;19;20139;-73
2022/11/03 00:45:59;;;;;;;4.43;3.13;;;12.10;99.90;;;;;;7394173;19;20173;-74
2022/11/03 00:48:31;;;;;;;5.20;2.80;;;11.90;99.90;;;;;;7397543;19;20460;-73
2022/11/03 00:51:07;;;;;;;4.83;3.03;;;11.50;99.90;;;;;;7396749;19;20154;-74
2022/11/03 00:53:41;;;;;;;6.93;3.50;;;11.70;99.90;;;;;;7400292;19;20140;-73
2022/11/03 00:56:10;;;;;;;7.33;3.33;;;11.80;99.90;;;;;;7399643;19;20138;-73
2022/11/03 00:58:36;;;;;;;5.60;2.83;;;11.90;99.90;;;;;;7399162;19;20484;-74
2022/11/03 01:01:09;;;;;;;4.97;2.67;;;12.10;99.90;;;;;;7401836;19;20126;-76
2022/11/03 01:03:37;;;;;;;6.27;3.67;;;12.10;99.90;;;;;;7404535;19;20936;-74
2022/11/03 01:08:53;;;;;;;11.83;3.47;;;12.00;99.90;;;;;;7404458;19;20163;-73
2022/11/03 01:14:07;;;;;;;7.50;3.13;;;11.70;99.90;;;;;;7391687;19;20155;-75
2022/11/03 01:16:33;;;;;;;5.43;2.83;;;11.50;99.90;;;;;;7392475;19;20158;-74
2022/11/03 01:18:59;;;;;;;5.73;2.83;;;11.60;99.90;;;;;;7391927;19;20672;-74
2022/11/03 01:21:25;;;;;;;5.57;2.90;;;11.60;99.90;;;;;;7391295;19;20260;-74
2022/11/03 01:23:52;;;;;;;6.45;2.75;;;11.70;99.90;;;;;;7393306;19;20141;-75
2022/11/03 01:26:18;;;;;;;8.10;3.40;;;11.90;99.90;;;;;;7398958;19;20134;-73
2022/11/03 01:28:45;;;;;;;6.47;2.97;;;11.60;99.90;;;;;;7409097;19;20134;-74
2022/11/03 01:31:20;;;;;;;6.70;3.20;;;11.50;99.90;;;;;;7405154;19;20226;-74
2022/11/03 01:33:48;;;;;;;5.73;3.33;;;11.80;99.90;;;;;;7409025;19;20153;-74
2022/11/03 01:36:14;;;;;;;5.43;3.23;;;11.90;99.90;;;;;;7406770;19;20161;-73
2022/11/03 01:38:41;;;;;;;7.13;3.30;;;11.80;99.90;;;;;;7402057;19;20131;-73
2022/11/03 01:41:16;;;;;;;7.60;3.30;;;12.00;99.90;;;;;;7406204;19;20138;-73
2022/11/03 01:43:42;;;;;;;4.70;2.90;;;12.00;99.90;;;;;;7405549;19;20133;-74
2022/11/03 01:46:17;;;;;;;6.93;3.00;;;11.90;99.90;;;;;;7405624;19;20154;-75
2022/11/03 01:49:08;;;;;;;5.47;3.30;;;11.90;99.90;;;;;;7408357;19;20134;-74
2022/11/03 01:51:37;;;;;;;7.50;3.50;;;12.00;99.90;;;;;;7405851;19;20151;-73
2022/11/03 01:54:07;;;;;;;6.50;3.30;;;11.90;99.90;;;;;;7408063;19;20145;-76
2022/11/03 01:56:36;;;;;;;6.93;2.87;;;11.80;99.90;;;;;;7402532;19;20142;-74
2022/11/03 01:59:02;;;;;;;5.07;3.23;;;11.80;99.90;;;;;;7406438;19;20134;-73
2022/11/03 02:04:12;;;;;;;6.40;3.40;;;11.90;99.90;;;;;;7347649;19;20555;-80
2022/11/03 02:06:38;;;;;;;8.33;3.67;;;11.90;99.90;;;;;;7394378;19;20138;-82
2022/11/03 02:09:08;;;;;;;5.30;2.93;;;11.80;99.90;;;;;;7403597;19;20151;-82
2022/11/03 02:14:20;;;;;;;7.83;3.30;;;11.80;99.90;;;;;;7405034;19;20133;-83
2022/11/03 02:16:53;;;;;;;10.10;3.50;;;11.80;99.90;;;;;;7405573;19;20138;-84
2022/11/03 02:19:45;;;;;;;5.03;3.27;;;11.80;99.90;;;;;;7406165;19;20142;-81
2022/11/03 02:22:32;;;;;;;7.00;3.30;;;11.70;99.90;;;;;;7398695;19;20135;-83
2022/11/03 02:25:18;;;;;;;6.53;3.17;;;11.60;99.90;;;;;;7403856;19;20553;-81
2022/11/03 02:27:44;;;;;;;6.40;3.33;;;11.50;99.90;;;;;;7404885;19;20140;-82
2022/11/03 02:30:10;;;;;;;6.20;3.20;;;11.50;99.90;;;;;;7403390;19;20164;-83
2022/11/03 02:32:43;;;;;;;5.50;2.73;;;11.10;99.90;;;;;;7401151;19;20142;-82
2022/11/03 02:35:30;;;;;;;6.97;3.40;;;11.30;99.90;;;;;;7407201;19;20143;-79
2022/11/03 02:37:59;;;;;;;5.87;2.90;;;11.50;99.90;;;;;;7402380;19;20597;-84
2022/11/03 02:40:39;;;;;;;8.23;3.90;;;11.10;99.90;;;;;;7398230;19;20151;-82
2022/11/03 02:43:07;;;;;;;5.87;2.90;;;10.80;99.90;;;;;;7399221;19;20579;-81
2022/11/03 02:45:33;;;;;;;5.90;3.03;;;10.90;99.90;;;;;;7395667;19;20155;-82
2022/11/03 02:48:02;;;;;;;4.60;3.30;;;11.20;99.90;;;;;;7395367;19;20147;-80
2022/11/03 02:50:29;;;;;;;6.77;3.17;;;11.30;99.90;;;;;;7397937;19;20162;-82
2022/11/03 02:52:56;;;;;;;5.93;2.60;;;11.40;99.90;;;;;;7399185;19;20135;-82
2022/11/03 02:55:39;;;;;;;5.57;2.90;;;11.30;99.90;;;;;;7400820;19;20226;-82
2022/11/03 02:58:16;;;;;;;6.33;2.90;;;11.10;99.90;;;;;;7406104;19;20137;-83
2022/11/03 03:00:50;;;;;;;5.43;2.90;;;11.30;99.90;;;;;;7418690;19;20142;-83
2022/11/03 03:03:22;;;;;;;5.37;3.07;;;11.30;99.90;;;;;;7416792;19;20174;-82
2022/11/03 03:05:51;;;;;;;6.33;3.70;;;11.40;99.90;;;;;;7419995;19;20146;-83
2022/11/03 03:08:19;;;;;;;10.67;3.70;;;11.50;99.90;;;;;;7424468;19;20177;-82
2022/11/03 03:10:46;;;;;;;7.27;3.40;;;11.50;99.90;;;;;;7418576;19;20138;-84
2022/11/03 03:13:15;;;;;;;6.27;2.97;;;11.30;99.90;;;;;;7406246;19;20908;-82
2022/11/03 03:15:53;;;;;;;7.47;3.67;;;11.40;99.90;;;;;;7406968;19;20138;-83
2022/11/03 03:18:36;;;;;;;9.07;3.47;;;11.50;99.90;;;;;;7400154;19;20151;-84
2022/11/03 03:21:21;;;;;;;6.20;3.50;;;11.50;99.90;;;;;;7406623;19;20142;-81
2022/11/03 03:24:01;;;;;;;5.40;3.37;;;11.50;99.90;;;;;;7400368;19;20137;-82
2022/11/03 03:26:36;;;;;;;9.17;4.30;;;11.40;99.90;;;;;;7397993;19;20134;-84
2022/11/03 03:29:08;;;;;;;8.50;4.03;;;11.40;99.90;;;;;;7395291;19;20126;-73
2022/11/03 03:31:37;;;;;;;8.53;3.90;;;11.30;99.90;;;;;;7394692;19;20166;-74
2022/11/03 03:34:04;;;;;;;9.33;3.87;;;11.40;99.90;;;;;;7398412;19;20163;-74
2022/11/03 03:36:31;;;;;;;6.43;3.80;;;11.30;99.90;;;;;;7397832;19;20870;-72
2022/11/03 03:39:01;;;;;;;7.53;3.63;;;11.20;99.90;;;;;;7392874;19;20214;-73
2022/11/03 03:41:31;;;;;;;7.40;3.93;;;11.20;99.90;;;;;;7394921;19;20158;-73
2022/11/03 03:44:04;;;;;;;8.63;4.30;;;11.10;99.90;;;;;;7391080;19;20158;-73
2022/11/03 03:46:43;;;;;;;9.23;4.10;;;11.20;99.90;;;;;;7398382;19;20164;-83
2022/11/03 03:49:09;;;;;;;7.13;3.67;;;11.20;99.90;;;;;;7392650;19;20149;-82
2022/11/03 03:51:36;;;;;;;7.77;3.77;;;11.10;99.90;;;;;;7393156;19;20209;-82
2022/11/03 03:54:02;;;;;;;7.40;3.40;;;11.10;99.90;;;;;;7394348;19;20142;-82
2022/11/03 03:56:35;;;;;;;9.23;3.70;;;11.20;99.90;;;;;;7392707;19;20148;-83
2022/11/03 03:59:01;;;;;;;7.47;3.83;;;11.20;99.90;;;;;;7395893;19;20145;-82
2022/11/03 04:01:29;;;;;;;7.57;4.07;;;11.20;99.90;;;;;;7397288;19;20139;-82
2022/11/03 04:03:55;;;;;;;6.57;4.03;;;11.20;99.90;;;;;;7392781;19;20175;-81
2022/11/03 04:06:21;;;;;;;7.17;3.97;;;11.20;99.90;;;;;;7393308;19;20571;-82
2022/11/03 04:08:50;;;;;;;8.90;4.50;;;11.00;99.90;;;;;;7395525;19;20131;-83
2022/11/03 04:22:15;;;;;;;7.23;4.17;;;11.10;99.90;;;;;;7393923;19;20138;-82
2022/11/03 04:24:42;;;;;;;6.43;4.00;;;11.20;99.90;;;;;;7393719;19;20146;-79
2022/11/03 04:27:28;;;;;;;8.40;4.30;;;11.20;99.90;;;;;;7396995;19;20150;-82
2022/11/03 04:30:02;;;;;;;6.57;4.30;;;11.30;99.90;;;;;;7395947;19;20198;-81
2022/11/03 04:32:28;;;;;;;10.13;4.33;;;11.30;99.90;;;;;;7394145;19;20166;-82
2022/11/03 04:34:55;;;;;;;7.57;4.37;;;11.20;99.90;;;;;;7393180;19;20162;-82
2022/11/03 04:37:21;;;;;;;10.77;4.00;;;11.10;99.90;;;;;;7394259;19;20592;-81
2022/11/03 04:39:47;;;;;;;9.93;4.10;;;11.10;99.90;;;;;;7396003;19;20141;-78
2022/11/03 04:42:21;;;;;;;9.17;4.40;;;11.10;99.90;;;;;;7394043;19;20150;-81
2022/11/03 04:44:48;;;;;;;7.73;3.70;;;11.00;99.90;;;;;;7392620;19;20151;-83
2022/11/03 04:47:17;;;;;;;7.20;4.20;;;10.90;99.90;;;;;;7393715;19;20147;-82
2022/11/03 04:49:45;;;;;;;5.50;3.60;;;10.90;99.90;;;;;;7393633;19;20146;-83
2022/11/03 04:52:18;;;;;;;6.20;3.60;;;10.90;99.90;;;;;;7394185;19;20270;-84
2022/11/03 04:54:45;;;;;;;6.03;3.50;;;10.90;99.90;;;;;;7392048;19;20246;-81
2022/11/03 04:57:13;;;;;;;6.93;3.60;;;11.00;99.90;;;;;;7395351;19;20139;-79
2022/11/03 04:59:45;;;;;;;5.67;3.50;;;10.80;99.90;;;;;;7396836;19;20143;-79
2022/11/03 05:02:17;;;;;;;7.67;3.27;;;10.80;99.90;;;;;;7390798;19;20146;-83
2022/11/03 05:04:44;;;;;;;7.60;3.30;;;10.90;99.90;;;;;;7392047;19;20167;-82
2022/11/03 05:07:27;;;;;;;8.23;3.77;;;10.90;99.90;;;;;;7394006;19;20138;-81
2022/11/03 05:09:56;;;;;;;6.87;3.30;;;10.70;99.90;;;;;;7393680;19;20142;-81
2022/11/03 05:12:22;;;;;;;8.77;3.30;;;10.80;99.90;;;;;;7391010;19;20209;-82
2022/11/03 05:14:51;;;;;;;4.50;2.90;;;11.00;99.90;;;;;;7394234;19;20264;-81
2022/11/03 05:17:23;;;;;;;7.43;2.67;;;11.00;99.90;;;;;;7391440;19;20142;-82
2022/11/03 05:19:54;;;;;;;5.40;2.67;;;10.90;99.90;;;;;;7390341;19;20154;-83
2022/11/03 05:22:23;;;;;;;7.53;2.90;;;11.00;99.90;;;;;;7391952;19;20170;-82
2022/11/03 05:25:02;;;;;;;6.87;3.03;;;11.10;99.90;;;;;;7390097;19;20495;-82
2022/11/03 05:27:28;;;;;;;4.03;3.00;;;11.10;99.90;;;;;;7392163;19;20141;-81
2022/11/03 05:29:58;;;;;;;4.77;3.33;;;11.10;99.90;;;;;;7390393;19;20133;-81
2022/11/03 05:32:27;;;;;;;5.83;3.00;;;11.10;99.90;;;;;;7390163;19;20218;-80
2022/11/03 05:34:54;;;;;;;4.80;2.80;;;11.00;99.90;;;;;;7392317;19;20154;-81
2022/11/03 05:37:30;;;;;;;4.43;2.77;;;10.80;99.90;;;;;;7393322;19;20165;-82
2022/11/03 05:39:58;;;;;;;4.27;2.90;;;10.90;99.90;;;;;;7391392;19;20161;-83
2022/11/03 05:42:31;;;;;;;5.77;2.83;;;10.80;99.90;;;;;;7394976;19;20592;-81
2022/11/03 05:44:58;;;;;;;7.20;3.20;;;10.10;99.90;;;;;;7389975;19;20134;-84
2022/11/03 05:47:29;;;;;;;5.83;3.63;;;10.10;99.90;;;;;;7391186;19;20625;-82
2022/11/03 05:50:09;;;;;;;4.47;2.70;;;10.30;99.90;;;;;;7392649;19;20566;-80
2022/11/03 05:52:36;;;;;;;5.10;2.80;;;10.50;99.90;;;;;;7393075;19;20154;-82
2022/11/03 05:55:02;;;;;;;6.10;2.90;;;10.70;99.90;;;;;;7392187;19;20218;-79
2022/11/03 05:57:30;;;;;;;8.90;3.30;;;10.90;99.90;;;;;;7394011;19;20134;-79
2022/11/03 05:59:56;;;;;;;5.60;2.90;;;10.90;99.90;;;;;;7392407;19;20138;-77
2022/11/03 06:02:25;;;;;;;6.93;3.23;;;11.00;99.90;;;;;;7393095;19;21907;-82
2022/11/03 06:04:51;;;;;;;6.43;3.10;;;11.10;99.90;;;;;;7389434;19;20151;-81
2022/11/03 06:07:25;;;;;;;6.33;3.87;;;11.10;99.90;;;;;;7391697;19;20135;-81
2022/11/03 06:09:52;;;;;;;7.93;3.63;;;11.20;99.90;;;;;;7390257;19;20154;-82
2022/11/03 06:12:21;;;;;;;6.90;3.80;;;11.20;99.90;;;;;;7389565;19;20144;-82
2022/11/03 06:14:50;;;;;;;6.77;4.07;;;11.10;99.90;;;;;;7397672;19;20544;-80
2022/11/03 06:17:25;;;;;;;10.33;4.10;;;11.00;99.90;;;;;;7401390;19;20126;-81
2022/11/03 06:19:57;;;;;;;9.07;4.30;;;11.10;99.90;;;;;;7398384;19;20178;-83
2022/11/03 06:22:35;;;;;;;7.57;3.70;;;11.10;99.90;;;;;;7400463;19;20134;-82
2022/11/03 06:25:43;;;;;;;8.97;4.57;;;11.10;99.90;;;;;;7398028;19;20138;-81
2022/11/03 06:28:17;;;;;;;4.90;3.10;;;11.10;99.90;;;;;;7394389;19;20488;-84
2022/11/03 06:30:44;;;;;;;5.97;3.20;;;10.90;99.90;;;;;;7398622;19;20379;-82
2022/11/03 06:33:20;;;;;;;8.33;4.00;;;10.70;99.90;;;;;;7399067;19;20144;-84
2022/11/03 06:35:47;;;;;;;8.87;4.33;;;10.80;99.90;;;;;;7399576;19;20157;-81
2022/11/03 06:38:25;;;;;;;8.63;3.43;;;10.90;99.90;;;;;;7400657;19;20489;-83
2022/11/03 06:40:52;;;;;;;6.93;3.67;;;11.00;99.90;;;;;;7399246;19;20149;-81
2022/11/03 06:43:26;;;;;;;7.30;3.80;;;11.00;99.90;;;;;;7400243;19;20198;-81
2022/11/03 06:45:58;;;;;;;6.93;4.40;;;11.00;99.90;;;;;;7399624;19;20146;-81
2022/11/03 06:48:28;;;;;;;7.40;4.77;;;11.00;99.90;;;;;;7395527;19;20213;-80
2022/11/03 06:50:56;;;;;;;7.57;4.57;;;10.80;99.90;;;;;;7400705;19;20150;-86
2022/11/03 06:53:32;;;;;;;8.33;4.80;;;10.90;99.90;;;;;;7405182;19;20130;-80
2022/11/03 06:55:58;;;;;;;10.47;4.50;;;10.80;99.90;;;;;;7408687;19;20130;-84
2022/11/03 06:58:35;;;;;;;8.63;4.67;;;10.80;99.90;;;;;;7419540;19;20135;-83
2022/11/03 07:01:13;;;;;;;7.00;4.23;;;10.90;99.90;;;;;;7415429;19;20206;-81
2022/11/03 07:03:39;;;;;;;6.70;4.23;;;11.00;99.90;;;;;;7412706;19;20163;-78
2022/11/03 07:06:13;;;;;;;9.53;4.73;;;10.90;99.90;;;;;;7415756;19;20134;-78
2022/11/03 07:08:42;;;;;;;7.03;4.33;;;11.00;99.90;;;;;;7413724;19;20146;-83
2022/11/03 07:11:19;;;;;;;7.13;4.53;;;11.10;99.90;;;;;;7402520;19;20148;-81
2022/11/03 07:13:54;;;;;;;7.03;4.73;;;11.10;99.90;;;;;;7403616;19;20142;-82
2022/11/03 07:16:36;;;;;;;11.53;4.43;;;11.10;99.90;;;;;;7404908;19;20536;-84
2022/11/03 07:19:17;;;;;;;9.00;5.27;;;11.10;99.90;;;;;;7403278;19;20158;-80
2022/11/03 07:22:07;;;;;;;9.60;4.53;;;11.20;99.90;;;;;;7389506;19;20185;-83
2022/11/03 07:24:38;;;;;;;6.97;4.30;;;11.20;99.90;;;;;;7392433;19;20147;-83
2022/11/03 07:27:24;;;;;;;6.53;3.80;;;11.20;99.90;;;;;;7395891;19;20146;-83
2022/11/03 07:29:55;;;;;;;7.30;4.63;;;11.20;99.90;;;;;;7397393;19;20150;-85
2022/11/03 07:32:25;;;;;;;8.33;3.93;;;11.20;99.90;;;;;;7397528;19;20439;-84
2022/11/03 07:34:52;;;;;;;10.10;4.87;;;11.30;99.90;;;;;;7390299;19;20158;-84
2022/11/03 07:37:21;;;;;;;8.93;4.03;;;11.30;99.90;;;;;;7399031;19;20214;-78
2022/11/03 07:39:49;;;;;;;12.33;4.13;;;10.70;99.90;;;;;;7396308;19;20145;-85
2022/11/03 07:42:22;;;;;;;7.73;4.00;;;10.90;99.90;;;;;;7397852;19;20420;-84
2022/11/03 07:44:49;;;;;;;11.27;4.10;;;11.10;99.90;;;;;;7391962;19;20147;-81
2022/11/03 07:47:19;;;;;;;7.63;3.63;;;11.20;99.90;;;;;;7403337;19;20147;-85
2022/11/03 07:49:45;;;;;;;5.67;3.87;;;11.20;99.90;;;;;;7396606;19;20154;-85
2022/11/03 07:52:15;;;;;;;5.73;3.90;;;11.30;99.90;;;;;;7396183;19;20147;-86
2022/11/03 07:54:41;;;;;;;10.17;4.23;;;11.40;99.90;;;;;;7396498;19;20595;-85
2022/11/03 07:57:30;;;;;;;10.13;4.30;;;11.40;99.90;;;;;;7395765;19;20146;-83
2022/11/03 08:00:03;;;;;;;6.00;3.90;;;11.50;99.90;;;;;;7393128;19;21077;-81
2022/11/03 08:02:41;;;;;;;6.97;4.60;;;11.20;99.90;;;;;;7393988;19;20598;-83
2022/11/03 08:05:07;;;;;;;6.53;4.33;;;11.40;99.90;;;;;;7396458;19;20214;-85
2022/11/03 08:07:33;;;;;;;7.07;3.77;;;11.50;99.90;;;;;;7395505;19;20178;-82
2022/11/03 08:09:59;;;;;;;10.33;5.77;;;11.40;99.90;;;;;;7393300;19;20498;-84
2022/11/03 08:12:25;;;;;;;5.90;3.90;;;11.40;99.90;;;;;;7397251;19;20471;-81
2022/11/03 08:14:50;;;;;;;9.53;4.97;;;11.50;99.90;;;;;;7395625;19;20134;-85
2022/11/03 08:17:16;;;;;;;8.17;3.97;;;11.70;99.90;;;;;;7394921;19;20138;-85
2022/11/03 08:19:42;;;;;;;7.73;4.23;;;11.70;99.90;;;;;;7393863;19;20163;-84
2022/11/03 08:22:08;;;;;;;7.87;4.87;;;11.80;99.90;;;;;;7392995;19;20154;-85
2022/11/03 08:24:33;;;;;;;6.10;4.20;;;11.90;99.90;;;;;;7392041;19;20155;-84
2022/11/03 08:26:59;;;;;;;7.97;4.90;;;11.90;99.90;;;;;;7393628;19;20584;-83
2022/11/03 08:29:26;;;;;;;9.17;4.17;;;11.90;99.90;;;;;;7391735;19;20210;-83
2022/11/03 08:31:55;;;;;;;6.20;3.97;;;11.90;99.90;;;;;;7392316;19;20127;-84
2022/11/03 08:34:20;;;;;;;5.97;4.17;;;12.00;99.90;;;;;;7393382;19;20131;-84
2022/11/03 08:36:46;;;;;;;7.77;4.27;;;12.00;99.90;;;;;;7390598;19;20445;-83
2022/11/03 08:39:12;;;;;;;8.73;4.27;;;12.20;99.90;;;;;;7394126;19;20138;-83
2022/11/03 08:41:38;;;;;;;7.07;4.13;;;12.20;99.90;;;;;;7395863;19;20138;-81
2022/11/03 08:44:04;;;;;;;8.73;5.00;;;12.20;99.90;;;;;;7393183;19;20142;-82
2022/11/03 08:46:30;;;;;;;6.97;4.33;;;11.90;99.90;;;;;;7394501;19;20153;-82
2022/11/03 08:48:56;;;;;;;7.07;4.43;;;11.30;99.90;;;;;;7401519;19;20138;-82
2022/11/03 08:51:22;;;;;;;6.37;4.40;;;11.30;99.90;;;;;;7393016;19;20691;-82
2022/11/03 08:53:53;;;;;;;7.23;4.20;;;11.60;99.90;;;;;;7392913;19;20800;-82
2022/11/03 08:56:20;;;;;;;5.50;4.03;;;11.90;99.90;;;;;;7393263;19;20141;-79
2022/11/03 08:58:47;;;;;;;7.00;3.87;;;12.20;99.90;;;;;;7392367;19;20134;-81
2022/11/03 09:01:13;;;;;;;6.37;4.13;;;12.40;99.90;;;;;;7391581;19;20146;-78
2022/11/03 09:03:40;;;;;;;6.70;4.07;;;12.40;99.90;;;;;;7390153;19;20154;-82
2022/11/03 09:06:06;;;;;;;6.07;4.10;;;12.40;99.90;;;;;;7392419;19;20154;-83
2022/11/03 09:08:33;;;;;;;7.07;4.13;;;12.50;99.90;;;;;;7393680;19;20134;-83
2022/11/03 09:10:59;;;;;;;8.33;4.00;;;12.50;99.90;;;;;;7391307;19;20146;-82
2022/11/03 09:13:24;;;;;;;4.93;3.63;;;12.60;99.90;;;;;;7393335;19;20146;-84
2022/11/03 09:15:50;;;;;;;6.93;3.70;;;12.70;99.90;;;;;;7392948;19;20158;-82
2022/11/03 09:18:16;;;;;;;7.27;4.10;;;12.70;99.90;;;;;;7394011;19;20154;-84
2022/11/03 09:20:43;;;;;;;5.97;3.63;;;12.80;99.90;;;;;;7392938;19;20150;-80
2022/11/03 09:23:09;;;;;;;8.37;5.20;;;12.70;99.90;;;;;;7397319;19;20495;-84
2022/11/03 09:25:34;;;;;;;12.13;4.07;;;12.70;99.90;;;;;;7394822;19;20138;-83
2022/11/03 09:28:00;;;;;;;5.40;4.10;;;12.70;99.90;;;;;;7395837;19;20131;-82
2022/11/03 09:30:26;;;;;;;8.70;4.47;;;12.70;99.90;;;;;;7391630;19;20135;-80
2022/11/03 09:32:52;;;;;;;8.37;4.37;;;12.70;99.90;;;;;;7391174;19;20134;-84
2022/11/03 09:35:18;;;;;;;7.50;4.50;;;12.80;99.90;;;;;;7392533;19;20146;-84
2022/11/03 09:37:44;;;;;;;8.50;4.10;;;12.80;99.90;;;;;;7393353;19;20130;-83
2022/11/03 09:40:13;;;;;;;10.48;4.97;;;12.80;99.90;;;;;;7389766;19;20149;-83
2022/11/03 09:42:39;;;;;;;10.20;4.53;;;12.90;99.90;;;;;;7394521;19;20131;-83
2022/11/03 09:45:07;;;;;;;8.63;5.23;;;13.00;99.90;;;;;;7390531;19;20884;-83
2022/11/03 09:47:35;;;;;;;8.27;4.22;;;13.00;99.90;;;;;;7398107;19;20151;-80
2022/11/03 09:50:02;;;;;;;7.03;4.73;;;13.10;99.90;;;;;;7398578;19;20202;-82
2022/11/03 09:52:28;;;;;;;6.93;4.33;;;13.20;99.90;;;;;;7399462;19;20147;-82
2022/11/03 09:54:54;;;;;;;8.13;4.53;;;13.10;99.90;;;;;;7403004;19;20209;-81
2022/11/03 09:57:21;;;;;;;6.13;3.40;;;13.20;99.90;;;;;;7401807;19;20123;-83
2022/11/03 09:59:48;;;;;;;9.07;4.07;;;13.20;99.90;;;;;;7400687;19;20139;-80
2022/11/03 10:02:27;;;;;;;5.33;3.50;;;13.20;99.90;;;;;;7400641;19;20586;-82
2022/11/03 10:04:57;;;;;;;5.27;3.63;;;13.30;99.90;;;;;;7400923;19;20130;-82
2022/11/03 10:07:25;;;;;;;6.23;3.43;;;13.30;99.90;;;;;;7400638;19;20146;-80
2022/11/03 10:09:53;;;;;;;8.47;3.87;;;13.30;99.90;;;;;;7401342;19;20141;-81
2022/11/03 10:12:21;;;;;;;7.60;2.97;;;13.20;99.90;;;;;;7395221;19;20147;-81
2022/11/03 10:14:50;;;;;;;7.17;2.97;;;13.30;99.90;;;;;;7401450;19;20143;-82
2022/11/03 10:17:19;;;;;;;8.07;3.90;;;13.40;99.90;;;;;;7402648;19;20115;-83
2022/11/03 10:19:49;;;;;;;10.67;3.80;;;13.40;99.90;;;;;;7399815;19;20147;-83
2022/11/03 10:22:16;;;;;;;8.70;3.30;;;13.40;99.90;;;;;;7399621;19;20150;-85
2022/11/03 10:24:42;;;;;;;6.03;3.45;;;13.50;99.90;;;;;;7397592;19;20146;-82
2022/11/03 10:27:22;;;;;;;8.17;3.90;;;13.60;99.90;;;;;;7399302;19;20147;-82
2022/11/03 10:30:08;;;;;;;5.68;3.35;;;13.50;99.90;;;;;;7398710;19;20153;-78
2022/11/03 10:32:35;;;;;;;8.47;3.07;;;13.80;99.90;;;;;;7401106;19;20146;-74
2022/11/03 10:35:22;;;;;;;6.25;2.70;;;13.80;99.90;;;;;;7402472;19;20150;-75
2022/11/03 10:37:48;;;;;;;6.20;2.70;;;13.80;99.90;;;;;;7398395;19;20142;-74
2022/11/03 10:40:35;;;;;;;6.20;4.00;;;13.60;99.90;;;;;;7395662;19;20316;-75
2022/11/03 10:43:01;;;;;;;5.78;3.22;;;13.70;99.90;;;;;;7399208;19;20146;-74
2022/11/03 10:45:26;;;;;;;7.47;3.05;;;13.90;99.90;;;;;;7399651;19;20135;-73
2022/11/03 10:48:05;;;;;;;7.78;2.67;;;14.00;99.90;;;;;;7394608;19;20144;-73
2022/11/03 10:50:31;;;;;;;6.75;3.10;;;14.00;99.90;;;;;;7395206;19;20494;-74
2022/11/03 10:52:57;;;;;;;4.80;2.73;;;14.00;99.90;;;;;;7396710;19;20138;-74
2022/11/03 10:55:24;;;;;;;3.80;2.72;;;13.80;99.90;;;;;;7397715;19;20160;-73
2022/11/03 10:57:51;;;;;;;5.65;2.90;;;13.90;99.90;;;;;;7398402;19;20607;-74
2022/11/03 11:00:18;;;;;;;5.25;2.80;;;14.00;99.90;;;;;;7394726;19;20146;-73
2022/11/03 11:02:46;;;;;;;6.32;2.78;;;14.10;99.90;;;;;;7396399;19;20170;-74
2022/11/03 11:05:20;;;;;;;7.00;3.13;;;14.00;99.90;;;;;;7395895;19;20217;-73
2022/11/03 11:07:47;;;;;;;4.63;2.45;;;14.10;99.90;;;;;;7396535;19;20572;-74
2022/11/03 11:10:17;;;;;;;8.07;4.10;;;13.90;99.90;;;;;;7396423;19;20142;-78
2022/11/03 11:13:04;;;;;;;5.72;3.38;;;13.90;99.90;;;;;;7396579;19;20123;-82
2022/11/03 11:15:38;;;;;;;5.30;3.13;;;14.00;99.90;;;;;;7402486;19;20174;-84
2022/11/03 11:18:04;;;;;;;6.45;3.03;;;14.10;99.90;;;;;;7401614;19;20164;-83
2022/11/03 11:20:38;;;;;;;6.88;3.45;;;14.00;99.90;;;;;;7403517;19;20135;-83
2022/11/03 11:23:28;;;;;;;9.00;3.07;;;14.00;99.90;;;;;;7409450;19;20131;-84
2022/11/03 11:26:09;;;;;;;6.93;3.50;;;14.10;99.90;;;;;;7429684;19;20134;-81
2022/11/03 11:29:06;;;;;;;5.10;3.63;;;14.10;99.90;;;;;;7429572;19;20123;-82
2022/11/03 11:31:35;;;;;;;9.52;5.50;;;14.10;99.90;;;;;;7425587;19;20135;-81
2022/11/03 11:34:29;;;;;;;7.13;4.45;;;14.20;99.90;;;;;;7428819;19;20140;-81
2022/11/03 11:36:58;;;;;;;5.60;3.67;;;14.20;99.90;;;;;;7428680;19;20145;-85
2022/11/03 11:39:30;;;;;;;6.55;3.80;;;14.20;99.90;;;;;;7412005;19;20825;-80
2022/11/03 11:42:14;;;;;;;6.43;3.60;;;14.40;99.90;;;;;;7408582;19;20151;-83
2022/11/03 11:44:42;;;;;;;5.75;3.50;;;14.40;99.90;;;;;;7424896;19;20170;-85
2022/11/03 11:47:23;;;;;;;10.13;3.90;;;14.40;99.90;;;;;;7415384;19;20135;-81
2022/11/03 11:50:14;;;;;;;7.43;3.97;;;14.40;99.90;;;;;;7409339;19;20526;-82
2022/11/03 11:52:40;;;;;;;6.72;3.65;;;14.40;99.90;;;;;;7398873;19;20163;-83
2022/11/03 11:55:24;;;;;;;5.55;3.47;;;14.40;99.90;;;;;;7399376;19;20170;-83
2022/11/03 11:57:51;;;;;;;7.80;3.50;;;14.40;99.90;;;;;;7395580;19;20150;-83
2022/11/03 12:00:21;;;;;;;7.28;3.60;;;14.40;99.90;;;;;;7396079;19;20558;-82
2022/11/03 12:02:48;;;;;;;8.63;3.90;;;14.60;99.90;;;;;;7396865;19;20150;-82
2022/11/03 12:05:26;;;;;;;8.57;4.05;;;14.60;99.90;;;;;;7392227;19;20154;-80
2022/11/03 12:07:53;;;;;;;7.68;3.90;;;14.60;99.90;;;;;;7396244;19;20154;-84
2022/11/03 12:10:27;;;;;;;10.60;5.28;;;14.50;99.90;;;;;;7392112;19;20165;-83
2022/11/03 12:12:54;;;;;;;9.68;5.63;;;14.40;99.90;;;;;;7396967;19;20135;-77
2022/11/03 12:15:51;;;;;;;6.95;4.38;;;14.50;99.90;;;;;;7397555;19;20147;-83
2022/11/03 12:18:42;;;;;;;8.68;3.60;;;14.50;99.90;;;;;;7394786;19;20151;-81
2022/11/03 12:21:10;;;;;;;7.10;4.05;;;14.70;99.90;;;;;;7410444;19;20146;-84
2022/11/03 12:23:40;;;;;;;8.90;3.95;;;14.80;99.90;;;;;;7395575;19;20250;-82
2022/11/03 12:26:16;;;;;;;9.40;4.55;;;14.80;99.90;;;;;;7395973;19;20166;-82
2022/11/03 12:28:42;;;;;;;9.23;4.05;;;14.80;99.90;;;;;;7394420;19;20138;-83
2022/11/03 12:31:08;;;;;;;6.50;3.75;;;14.80;99.90;;;;;;7391084;19;20749;-83
2022/11/03 12:33:34;;;;;;;5.90;3.65;;;14.70;99.90;;;;;;7396252;19;20134;-82
2022/11/03 12:36:00;;;;;;;8.95;4.25;;;14.70;99.90;;;;;;7390988;19;20134;-84
2022/11/03 12:38:25;;;;;;;5.30;3.47;;;14.60;99.90;;;;;;7396113;19;20139;-84
2022/11/03 12:40:52;;;;;;;10.40;4.22;;;14.80;99.90;;;;;;7393242;19;20154;-82
2022/11/03 12:43:19;;;;;;;8.35;4.35;;;14.80;99.90;;;;;;7394079;19;20146;-85
2022/11/03 12:45:44;;;;;;;8.68;3.78;;;14.80;99.90;;;;;;7408703;19;20134;-82
2022/11/03 12:48:10;;;;;;;8.98;3.67;;;14.70;99.90;;;;;;7397714;19;20787;-83
2022/11/03 12:50:38;;;;;;;5.68;3.33;;;14.70;99.90;;;;;;7394000;19;20138;-84
2022/11/03 12:53:05;;;;;;;7.72;3.90;;;14.60;99.90;;;;;;7397719;19;20139;-85
2022/11/03 12:55:32;;;;;;;12.80;4.20;;;14.50;99.90;;;;;;7393201;19;20210;-85
2022/11/03 12:57:58;;;;;;;8.00;3.70;;;14.60;99.90;;;;;;7396623;19;20146;-84
2022/11/03 13:00:24;;;;;;;5.38;3.70;;;14.60;99.90;;;;;;7397409;19;20506;-83
2022/11/03 13:02:50;;;;;;;6.78;3.28;;;14.60;99.90;;;;;;7397957;19;20157;-82
2022/11/03 13:05:15;;;;;;;8.00;3.55;;;14.60;99.90;;;;;;7392100;19;20593;-81
2022/11/03 13:07:42;;;;;;;6.68;3.80;;;14.70;99.90;;;;;;7396054;19;20142;-83
2022/11/03 13:10:08;;;;;;;5.07;3.60;;;14.50;99.90;;;;;;7393710;19;20216;-83
2022/11/03 13:12:37;;;;;;;7.97;3.90;;;14.50;99.90;;;;;;7395628;19;20178;-84
2022/11/03 13:15:07;;;;;;;6.32;3.58;;;14.40;99.90;;;;;;7394191;19;20142;-85
2022/11/03 13:17:33;;;;;;;7.35;3.92;;;14.30;99.90;;;;;;7393880;19;20150;-84
2022/11/03 13:19:59;;;;;;;7.63;3.67;;;14.20;99.90;;;;;;7391241;19;20174;-82
2022/11/03 13:22:24;;;;;;;8.52;4.28;;;14.20;99.90;;;;;;7400585;19;20167;-83
2022/11/03 13:24:50;;;;;;;7.00;3.72;;;14.20;99.90;;;;;;7397521;19;20143;-82